createdAt,value
2019-01-20T00:00:57.086Z,4.04
2019-01-20T00:03:25.559Z,4.16
2019-01-20T00:05:53.003Z,4.08
2019-01-20T00:08:20.537Z,3.88
2019-01-20T00:10:48.075Z,3.91
2019-01-20T00:13:15.706Z,3.95
2019-01-20T00:15:45.986Z,3.94
2019-01-20T00:18:13.613Z,3.89
2019-01-20T00:20:41.213Z,3.89
2019-01-20T00:23:08.846Z,3.87
2019-01-20T00:25:36.624Z,3.92
2019-01-20T00:28:04.258Z,3.94
2019-01-20T00:30:31.793Z,3.95
2019-01-20T00:32:59.382Z,3.92
2019-01-20T00:35:26.828Z,3.84
2019-01-20T00:37:54.255Z,3.84
2019-01-20T00:40:22.024Z,3.89
2019-01-20T00:42:49.467Z,3.89
2019-01-20T00:45:17.207Z,3.83
2019-01-20T00:47:44.904Z,3.86
2019-01-20T00:50:14.369Z,3.90
2019-01-20T00:52:42.393Z,3.81
2019-01-20T00:55:12.561Z,3.70
2019-01-20T00:57:40.750Z,3.64
2019-01-20T01:00:20.632Z,3.62
2019-01-20T01:02:48.665Z,3.60
2019-01-20T01:05:17.686Z,3.64
2019-01-20T01:07:45.708Z,3.62
2019-01-20T01:10:14.183Z,3.58
2019-01-20T01:12:42.024Z,3.55
2019-01-20T01:15:10.619Z,3.48
2019-01-20T01:17:38.234Z,3.37
2019-01-20T01:20:07.876Z,3.41
2019-01-20T01:22:35.369Z,3.43
2019-01-20T01:25:03.508Z,3.36
2019-01-20T01:27:31.109Z,3.30
2019-01-20T01:29:58.568Z,3.43
2019-01-20T01:32:26.129Z,3.44
2019-01-20T01:34:53.782Z,3.48
2019-01-20T01:37:21.633Z,3.43
2019-01-20T01:39:49.282Z,3.41
2019-01-20T01:42:16.804Z,3.48
2019-01-20T01:44:44.318Z,3.47
2019-01-20T01:47:11.945Z,3.52
2019-01-20T01:49:39.636Z,3.56
2019-01-20T01:52:07.153Z,3.53
2019-01-20T01:54:34.684Z,3.43
2019-01-20T01:57:02.446Z,3.33
2019-01-20T01:59:30.001Z,3.31
2019-01-20T02:01:57.556Z,3.31
2019-01-20T02:04:25.165Z,3.20
2019-01-20T02:06:52.763Z,3.26
2019-01-20T02:09:20.243Z,3.29
2019-01-20T02:11:47.850Z,3.23
2019-01-20T02:14:15.417Z,3.30
2019-01-20T02:16:43.170Z,3.30
2019-01-20T02:19:10.744Z,3.26
2019-01-20T02:21:38.365Z,3.18
2019-01-20T02:24:05.844Z,3.24
2019-01-20T02:26:33.351Z,3.35
2019-01-20T02:29:00.943Z,3.33
2019-01-20T02:31:28.505Z,3.27
2019-01-20T02:33:56.040Z,3.37
2019-01-20T02:36:23.553Z,3.24
2019-01-20T02:38:51.114Z,3.31
2019-01-20T02:41:18.606Z,3.31
2019-01-20T02:43:46.100Z,3.30
2019-01-20T02:46:13.587Z,3.22
2019-01-20T02:48:41.262Z,3.38
2019-01-20T02:51:08.704Z,3.38
2019-01-20T02:53:36.214Z,3.34
2019-01-20T02:56:04.674Z,3.34
2019-01-20T02:58:32.270Z,3.40
2019-01-20T03:00:59.747Z,3.34
2019-01-20T03:03:27.497Z,3.48
2019-01-20T03:05:55.023Z,3.48
2019-01-20T03:08:22.594Z,3.42
2019-01-20T03:10:50.183Z,3.46
2019-01-20T03:13:17.662Z,3.49
2019-01-20T03:15:45.448Z,3.48
2019-01-20T03:18:12.966Z,3.55
2019-01-20T03:20:40.474Z,3.52
2019-01-20T03:23:08.026Z,3.67
2019-01-20T03:25:35.524Z,3.59
2019-01-20T03:28:03.074Z,3.52
2019-01-20T03:30:30.667Z,3.48
2019-01-20T03:32:58.093Z,3.54
2019-01-20T03:35:25.893Z,3.55
2019-01-20T03:37:53.871Z,3.57
2019-01-20T03:40:21.522Z,3.60
2019-01-20T03:42:49.604Z,3.71
2019-01-20T03:45:17.324Z,3.77
2019-01-20T03:47:45.015Z,3.70
2019-01-20T03:50:14.046Z,3.86
2019-01-20T03:52:41.636Z,3.93
2019-01-20T03:55:10.929Z,3.87
2019-01-20T03:57:38.424Z,3.82
2019-01-20T04:00:09.635Z,3.74
2019-01-20T04:02:37.293Z,3.77
2019-01-20T04:05:05.284Z,3.60
2019-01-20T04:07:32.826Z,3.63
2019-01-20T04:10:00.384Z,3.66
2019-01-20T04:12:28.006Z,3.65
2019-01-20T04:14:55.542Z,3.68
2019-01-20T04:17:23.258Z,3.70
2019-01-20T04:19:50.874Z,3.76
2019-01-20T04:22:18.401Z,3.81
2019-01-20T04:24:45.897Z,3.69
2019-01-20T04:27:13.433Z,3.66
2019-01-20T04:29:40.940Z,3.57
2019-01-20T04:32:08.431Z,3.67
2019-01-20T04:34:35.984Z,3.66
2019-01-20T04:37:03.607Z,3.69
2019-01-20T04:39:31.137Z,3.70
2019-01-20T04:41:58.709Z,3.70
2019-01-20T04:44:26.347Z,3.69
2019-01-20T04:46:53.950Z,3.61
2019-01-20T04:49:22.030Z,3.67
2019-01-20T04:51:49.700Z,3.72
2019-01-20T04:54:17.484Z,3.67
2019-01-20T04:56:45.076Z,3.50
2019-01-20T04:59:12.588Z,3.67
2019-01-20T05:01:40.383Z,3.58
2019-01-20T05:04:08.019Z,3.52
2019-01-20T05:06:35.575Z,3.57
2019-01-20T05:09:05.955Z,3.60
2019-01-20T05:11:33.463Z,3.59
2019-01-20T05:14:01.008Z,3.66
2019-01-20T05:16:28.659Z,3.53
2019-01-20T05:18:56.164Z,3.49
2019-01-20T05:21:23.717Z,3.49
2019-01-20T05:23:51.352Z,3.59
2019-01-20T05:26:18.893Z,3.59
2019-01-20T05:28:46.438Z,3.57
2019-01-20T05:31:13.921Z,3.56
2019-01-20T05:33:41.511Z,3.55
2019-01-20T05:36:09.012Z,3.59
2019-01-20T05:38:36.462Z,3.53
2019-01-20T05:41:04.048Z,3.54
2019-01-20T05:43:31.617Z,3.42
2019-01-20T05:45:59.250Z,3.54
2019-01-20T05:48:26.883Z,3.59
2019-01-20T05:50:54.447Z,3.49
2019-01-20T05:53:22.082Z,3.55
2019-01-20T05:55:49.677Z,3.50
2019-01-20T05:58:17.239Z,3.51
2019-01-20T06:00:44.737Z,3.48
2019-01-20T06:03:12.248Z,3.50
2019-01-20T06:05:39.862Z,3.44
2019-01-20T06:08:07.405Z,3.43
2019-01-20T06:10:34.894Z,3.47
2019-01-20T06:13:02.531Z,3.52
2019-01-20T06:15:29.901Z,3.51
2019-01-20T06:17:57.366Z,3.50
2019-01-20T06:20:24.874Z,3.53
2019-01-20T06:22:52.416Z,3.59
2019-01-20T06:25:19.894Z,3.65
2019-01-20T06:27:47.468Z,3.60
2019-01-20T06:30:29.339Z,3.63
2019-01-20T06:32:56.993Z,3.76
2019-01-20T06:35:24.479Z,3.77
2019-01-20T06:37:52.164Z,3.72
2019-01-20T06:40:19.889Z,3.72
2019-01-20T06:42:47.360Z,3.70
2019-01-20T06:45:15.064Z,3.71
2019-01-20T06:47:42.739Z,3.82
2019-01-20T06:50:11.997Z,3.89
2019-01-20T06:52:39.552Z,3.89
2019-01-20T06:55:08.651Z,3.96
2019-01-20T06:57:36.101Z,4.05
2019-01-20T07:00:05.160Z,4.12
2019-01-20T07:02:32.570Z,4.33
2019-01-20T07:12:28.423Z,4.52
2019-01-20T07:14:56.120Z,4.50
2019-01-20T07:17:23.765Z,4.45
2019-01-20T07:19:51.576Z,4.43
2019-01-20T07:22:19.356Z,4.50
2019-01-20T07:24:46.836Z,4.45
2019-01-20T07:27:14.578Z,4.53
2019-01-20T07:29:42.182Z,4.50
2019-01-20T07:32:09.775Z,4.55
2019-01-20T07:34:37.371Z,4.41
2019-01-20T07:37:05.023Z,4.39
2019-01-20T07:39:32.682Z,4.36
2019-01-20T07:42:00.495Z,4.39
2019-01-20T07:44:27.973Z,4.31
2019-01-20T07:46:55.654Z,4.39
2019-01-20T07:49:23.296Z,4.48
2019-01-20T07:51:51.018Z,4.55
2019-01-20T07:54:18.665Z,4.67
2019-01-20T07:56:46.339Z,4.62
2019-01-20T07:59:13.943Z,4.54
2019-01-20T08:01:41.466Z,4.56
2019-01-20T08:04:09.257Z,4.79
2019-01-20T08:06:37.481Z,4.85
2019-01-20T08:09:07.409Z,4.83
2019-01-20T08:11:35.006Z,4.83
2019-01-20T08:14:02.533Z,4.75
2019-01-20T08:16:29.966Z,4.93
2019-01-20T08:18:57.531Z,4.89
2019-01-20T08:21:25.137Z,4.91
2019-01-20T08:23:52.718Z,4.96
2019-01-20T08:26:20.283Z,5.03
2019-01-20T08:28:47.955Z,5.17
2019-01-20T08:31:15.534Z,5.31
2019-01-20T08:33:43.083Z,5.39
2019-01-20T08:36:10.745Z,5.50
2019-01-20T08:38:38.289Z,5.48
2019-01-20T08:41:05.827Z,5.37
2019-01-20T08:43:33.435Z,5.33
2019-01-20T08:46:21.056Z,5.23
2019-01-20T08:48:48.622Z,5.22
2019-01-20T08:51:16.213Z,5.21
2019-01-20T08:53:43.674Z,5.08
2019-01-20T08:56:11.263Z,5.22
2019-01-20T08:58:39.083Z,5.04
2019-01-20T09:01:06.794Z,5.09
2019-01-20T09:03:34.320Z,5.13
2019-01-20T09:06:02.099Z,5.14
2019-01-20T09:08:29.618Z,5.27
2019-01-20T09:10:57.215Z,5.34
2019-01-20T09:13:24.819Z,5.34
2019-01-20T09:15:52.521Z,5.22
2019-01-20T09:18:19.943Z,5.12
2019-01-20T09:20:48.274Z,5.19
2019-01-20T09:23:15.895Z,5.26
2019-01-20T09:25:43.465Z,5.15
2019-01-20T09:28:11.088Z,5.20
2019-01-20T09:30:38.680Z,5.20
2019-01-20T09:33:06.736Z,5.04
2019-01-20T09:35:34.335Z,5.09
2019-01-20T09:38:01.894Z,5.12
2019-01-20T09:40:29.521Z,5.17
2019-01-20T09:42:57.100Z,5.54
2019-01-20T09:45:28.071Z,5.63
2019-01-20T09:47:56.090Z,5.78
2019-01-20T09:50:23.863Z,5.88
2019-01-20T09:52:51.728Z,5.86
2019-01-20T09:55:19.360Z,5.78
2019-01-20T09:57:47.231Z,5.70
2019-01-20T10:00:16.701Z,5.80
2019-01-20T10:02:44.369Z,5.84
2019-01-20T10:05:12.366Z,5.79
2019-01-20T10:07:39.928Z,5.77
2019-01-20T10:10:10.632Z,5.77
2019-01-20T10:12:38.228Z,5.84
2019-01-20T10:15:07.150Z,6.03
2019-01-20T10:17:34.669Z,6.04
2019-01-20T10:20:02.833Z,5.94
2019-01-20T10:22:30.452Z,5.79
2019-01-20T10:24:57.909Z,5.69
2019-01-20T10:27:25.442Z,5.74
2019-01-20T10:29:52.992Z,5.79
2019-01-20T10:32:20.544Z,5.62
2019-01-20T10:34:49.265Z,5.52
2019-01-20T10:37:17.405Z,5.88
2019-01-20T10:39:44.908Z,6.01
2019-01-20T10:42:12.406Z,6.20
2019-01-20T10:44:39.909Z,6.30
2019-01-20T10:47:07.462Z,6.41
2019-01-20T10:49:34.918Z,6.09
2019-01-20T10:52:03.013Z,6.20
2019-01-20T10:54:30.610Z,6.02
2019-01-20T10:56:58.292Z,5.99
2019-01-20T10:59:25.871Z,5.76
2019-01-20T11:01:53.484Z,5.93
2019-01-20T11:04:21.151Z,5.94
2019-01-20T11:06:48.771Z,5.89
2019-01-20T11:09:16.404Z,5.71
2019-01-20T11:11:44.171Z,5.76
2019-01-20T11:14:11.774Z,5.79
2019-01-20T11:16:39.348Z,5.78
2019-01-20T11:19:06.913Z,5.84
2019-01-20T11:21:34.888Z,5.89
2019-01-20T11:24:02.865Z,6.00
2019-01-20T11:26:30.544Z,6.07
2019-01-20T11:28:58.379Z,6.02
2019-01-20T11:31:26.061Z,6.19
2019-01-20T11:33:54.745Z,6.40
2019-01-20T11:36:22.499Z,6.31
2019-01-20T11:38:50.364Z,6.35
2019-01-20T11:41:18.007Z,6.40
2019-01-20T11:43:45.822Z,6.37
2019-01-20T11:46:13.655Z,6.29
2019-01-20T11:48:41.632Z,6.27
2019-01-20T11:51:09.436Z,6.28
2019-01-20T11:53:37.162Z,6.42
2019-01-20T11:56:04.896Z,6.57
2019-01-20T11:58:32.928Z,6.73
2019-01-20T12:01:00.916Z,6.82
2019-01-20T12:03:28.928Z,6.74
2019-01-20T12:05:56.567Z,6.99
2019-01-20T12:08:30.389Z,7.06
2019-01-20T12:10:53.840Z,7.07
2019-01-20T12:13:26.642Z,6.92
2019-01-20T12:15:54.496Z,7.03
2019-01-20T12:18:22.369Z,6.99
2019-01-20T12:20:49.969Z,7.01
2019-01-20T12:23:17.705Z,6.96
2019-01-20T12:25:45.308Z,6.95
2019-01-20T12:28:12.929Z,7.09
2019-01-20T12:30:40.495Z,7.16
2019-01-20T12:33:08.754Z,7.26
2019-01-20T12:35:36.353Z,7.28
2019-01-20T12:38:04.547Z,7.05
2019-01-20T12:40:35.286Z,6.76
2019-01-20T12:43:04.069Z,6.74
2019-01-20T12:45:31.650Z,6.66
2019-01-20T12:47:59.257Z,6.68
2019-01-20T12:50:26.837Z,6.92
2019-01-20T12:52:54.274Z,6.97
2019-01-20T12:55:21.766Z,7.09
2019-01-20T12:57:49.229Z,7.01
2019-01-20T13:00:17.746Z,7.09
2019-01-20T13:02:45.444Z,7.05
2019-01-20T13:05:13.261Z,7.03
2019-01-20T13:07:40.708Z,6.89
2019-01-20T13:10:09.859Z,6.89
2019-01-20T13:12:37.532Z,7.19
2019-01-20T13:15:07.300Z,7.15
2019-01-20T13:17:34.754Z,7.10
2019-01-20T13:20:02.810Z,7.09
2019-01-20T13:22:30.375Z,7.06
2019-01-20T13:24:57.869Z,7.13
2019-01-20T13:27:25.583Z,7.09
2019-01-20T13:29:53.667Z,7.35
2019-01-20T13:32:21.468Z,7.30
2019-01-20T13:34:49.345Z,7.17
2019-01-20T13:37:16.983Z,7.18
2019-01-20T13:39:44.626Z,7.16
2019-01-20T13:42:12.432Z,6.96
2019-01-20T13:44:46.046Z,6.73
2019-01-20T13:47:09.296Z,6.73
2019-01-20T13:49:36.881Z,6.64
2019-01-20T13:52:04.760Z,6.84
2019-01-20T13:54:32.201Z,6.87
2019-01-20T13:56:59.702Z,6.98
2019-01-20T13:59:27.571Z,6.75
2019-01-20T14:01:55.431Z,6.61
2019-01-20T14:04:23.429Z,6.59
2019-01-20T14:06:51.138Z,6.58
2019-01-20T14:09:18.728Z,6.80
2019-01-20T14:11:46.387Z,6.71
2019-01-20T14:14:14.028Z,6.66
2019-01-20T14:16:41.648Z,6.59
2019-01-20T14:19:09.220Z,6.51
2019-01-20T14:21:36.759Z,6.63
2019-01-20T14:24:04.885Z,6.45
2019-01-20T14:26:32.482Z,6.33
2019-01-20T14:29:00.227Z,6.28
2019-01-20T14:31:27.703Z,6.35
2019-01-20T14:33:55.160Z,6.56
2019-01-20T14:36:22.859Z,6.79
2019-01-20T14:38:50.445Z,6.77
2019-01-20T14:41:17.967Z,6.65
2019-01-20T14:43:45.713Z,6.43
2019-01-20T14:46:13.331Z,6.54
2019-01-20T14:48:40.794Z,6.57
2019-01-20T14:51:08.281Z,6.74
2019-01-20T14:53:35.880Z,6.65
2019-01-20T14:56:03.799Z,6.74
2019-01-20T14:58:31.332Z,6.66
2019-01-20T15:00:58.838Z,6.58
2019-01-20T15:03:26.330Z,6.70
2019-01-20T15:05:53.910Z,6.57
2019-01-20T15:08:21.451Z,6.45
2019-01-20T15:10:48.964Z,6.28
2019-01-20T15:13:16.643Z,6.20
2019-01-20T15:15:44.874Z,6.29
2019-01-20T15:18:12.376Z,6.25
2019-01-20T15:20:40.599Z,6.25
2019-01-20T15:23:09.246Z,6.08
2019-01-20T15:25:36.896Z,6.01
2019-01-20T15:28:05.988Z,6.01
2019-01-20T15:30:34.109Z,6.08
2019-01-20T15:33:02.899Z,5.87
2019-01-20T15:35:30.833Z,5.76
2019-01-20T15:37:58.723Z,5.75
2019-01-20T15:40:27.187Z,5.67
2019-01-20T15:42:54.778Z,5.51
2019-01-20T15:45:22.505Z,5.44
2019-01-20T15:47:50.107Z,5.57
2019-01-20T15:50:20.557Z,5.60
2019-01-20T15:52:48.027Z,5.59
2019-01-20T15:55:15.803Z,5.52
2019-01-20T15:57:43.348Z,5.39
2019-01-20T16:00:14.377Z,5.54
2019-01-20T16:02:41.874Z,5.47
2019-01-20T16:05:09.687Z,5.43
2019-01-20T16:07:37.298Z,5.26
2019-01-20T16:10:06.483Z,5.08
2019-01-20T16:12:34.039Z,4.94
2019-01-20T16:15:01.722Z,4.86
2019-01-20T16:17:29.185Z,4.90
2019-01-20T16:19:56.715Z,5.13
2019-01-20T16:22:24.280Z,5.18
2019-01-20T16:24:51.859Z,5.24
2019-01-20T16:27:19.315Z,4.95
2019-01-20T16:29:47.231Z,4.82
2019-01-20T16:32:14.941Z,4.71
2019-01-20T16:34:42.481Z,4.63
2019-01-20T16:37:10.276Z,4.56
2019-01-20T16:39:37.909Z,4.65
2019-01-20T16:42:05.636Z,4.85
2019-01-20T16:44:33.285Z,5.16
2019-01-20T16:47:00.810Z,5.18
2019-01-20T16:49:28.332Z,5.22
2019-01-20T16:51:55.910Z,5.04
2019-01-20T16:54:23.357Z,5.06
2019-01-20T16:56:50.896Z,4.91
2019-01-20T16:59:18.566Z,4.98
2019-01-20T17:01:46.278Z,4.91
2019-01-20T17:04:13.971Z,4.91
2019-01-20T17:06:41.549Z,4.96
2019-01-20T17:09:09.225Z,4.75
2019-01-20T17:11:36.864Z,4.55
2019-01-20T17:14:04.725Z,4.45
2019-01-20T17:16:32.235Z,4.32
2019-01-20T17:18:59.780Z,4.19
2019-01-20T17:21:27.440Z,4.12
2019-01-20T17:23:55.123Z,3.96
2019-01-20T17:26:22.573Z,3.88
2019-01-20T17:28:50.035Z,3.92
2019-01-20T17:31:17.488Z,3.94
2019-01-20T17:33:45.018Z,3.91
2019-01-20T17:36:12.566Z,3.71
2019-01-20T17:38:40.049Z,3.81
2019-01-20T17:41:07.782Z,3.74
2019-01-20T17:43:35.358Z,3.70
2019-01-20T17:46:03.592Z,3.66
2019-01-20T17:48:31.123Z,3.89
2019-01-20T17:50:58.591Z,3.90
2019-01-20T17:53:26.125Z,3.76
2019-01-20T17:55:53.791Z,3.93
2019-01-20T17:58:21.301Z,3.96
2019-01-20T18:00:52.070Z,3.88
2019-01-20T18:03:20.540Z,3.55
2019-01-20T18:05:48.438Z,3.75
2019-01-20T18:08:16.023Z,4.14
2019-01-20T18:10:43.554Z,4.37
2019-01-20T18:13:11.235Z,4.34
2019-01-20T18:15:38.915Z,4.29
2019-01-20T18:18:06.372Z,4.18
2019-01-20T18:20:34.593Z,4.36
2019-01-20T18:23:02.065Z,4.47
2019-01-20T18:25:29.929Z,4.64
2019-01-20T18:27:57.414Z,4.73
2019-01-20T18:30:26.030Z,4.90
2019-01-20T18:32:54.435Z,4.96
2019-01-20T18:35:23.757Z,4.81
2019-01-20T18:37:52.560Z,4.86
2019-01-20T18:40:21.278Z,4.88
2019-01-20T18:42:49.149Z,5.14
2019-01-20T18:45:19.080Z,4.95
2019-01-20T18:47:46.697Z,5.00
2019-01-20T18:50:17.063Z,5.30
2019-01-20T18:52:44.781Z,5.53
2019-01-20T18:55:14.806Z,5.98
2019-01-20T18:57:42.518Z,5.75
2019-01-20T19:00:14.106Z,5.68
2019-01-20T19:02:41.694Z,5.65
2019-01-20T19:05:11.794Z,5.76
2019-01-20T19:07:39.412Z,5.84
2019-01-20T19:10:08.161Z,5.95
2019-01-20T19:12:35.812Z,6.09
2019-01-20T19:15:04.712Z,5.99
2019-01-20T19:17:32.222Z,6.17
2019-01-20T19:19:59.952Z,6.25
2019-01-20T19:22:27.587Z,6.01
2019-01-20T19:24:55.336Z,5.85
2019-01-20T19:27:22.905Z,6.02
2019-01-20T19:29:50.612Z,5.87
2019-01-20T19:32:18.178Z,5.69
2019-01-20T19:34:45.755Z,5.70
2019-01-20T19:37:13.324Z,5.87
2019-01-20T19:39:41.043Z,6.02
2019-01-20T19:42:08.528Z,6.06
2019-01-20T19:44:36.178Z,5.92
2019-01-20T19:47:03.781Z,6.13
2019-01-20T19:49:31.270Z,5.95
2019-01-20T19:51:58.701Z,5.71
2019-01-20T19:54:26.179Z,5.66
2019-01-20T19:56:53.672Z,5.52
2019-01-20T19:59:21.099Z,5.69
2019-01-20T20:01:48.619Z,5.58
2019-01-20T20:04:16.173Z,5.46
2019-01-20T20:06:43.826Z,5.28
2019-01-20T20:09:12.384Z,5.11
2019-01-20T20:11:39.919Z,5.02
2019-01-20T20:14:07.481Z,5.05
2019-01-20T20:16:34.959Z,5.00
2019-01-20T20:19:02.370Z,5.11
2019-01-20T20:21:29.816Z,5.26
2019-01-20T20:23:57.441Z,5.36
2019-01-20T20:26:25.021Z,5.30
2019-01-20T20:28:52.509Z,5.22
2019-01-20T20:31:20.169Z,5.16
2019-01-20T20:33:47.788Z,5.15
2019-01-20T20:36:15.309Z,5.08
2019-01-20T20:38:42.865Z,5.02
2019-01-20T20:41:10.421Z,4.80
2019-01-20T20:43:37.946Z,4.75
2019-01-20T20:46:05.669Z,4.53
2019-01-20T20:48:33.076Z,4.36
2019-01-20T20:51:00.552Z,4.08
2019-01-20T20:53:28.099Z,3.92
2019-01-20T20:55:55.704Z,3.81
2019-01-20T20:58:23.322Z,3.77
2019-01-20T21:00:52.921Z,3.67
2019-01-20T21:03:32.294Z,3.66
2019-01-20T21:05:59.765Z,3.71
2019-01-20T21:08:27.333Z,3.57
2019-01-20T21:10:54.903Z,3.46
2019-01-20T21:13:22.434Z,3.37
2019-01-20T21:15:50.977Z,3.33
2019-01-20T21:18:18.599Z,3.63
2019-01-20T21:20:46.138Z,3.60
2019-01-20T21:23:13.589Z,3.60
2019-01-20T21:25:41.318Z,3.51
2019-01-20T21:28:08.820Z,3.52
2019-01-20T21:30:36.251Z,3.62
2019-01-20T21:33:03.973Z,3.46
2019-01-20T21:35:31.592Z,3.45
2019-01-20T21:38:06.525Z,3.41
2019-01-20T21:40:28.702Z,3.37
2019-01-20T21:42:56.228Z,3.34
2019-01-20T21:45:23.830Z,3.45
2019-01-20T21:47:51.498Z,3.55
2019-01-20T21:50:24.587Z,3.68
2019-01-20T21:52:51.979Z,3.64
2019-01-20T21:55:19.664Z,3.50
2019-01-20T21:57:47.507Z,3.57
2019-01-20T22:00:17.723Z,3.67
2019-01-20T22:02:45.207Z,3.70
2019-01-20T22:05:12.874Z,3.61
2019-01-20T22:07:40.362Z,3.41
2019-01-20T22:10:13.334Z,3.54
2019-01-20T22:12:40.867Z,3.67
2019-01-20T22:15:09.309Z,3.56
2019-01-20T22:17:36.841Z,3.87
2019-01-20T22:20:06.743Z,3.66
2019-01-20T22:22:34.270Z,3.62
2019-01-20T22:25:01.789Z,3.80
2019-01-20T22:27:29.353Z,4.11
2019-01-20T22:29:56.830Z,3.87
2019-01-20T22:32:24.552Z,3.89
2019-01-20T22:34:51.934Z,4.06
2019-01-20T22:37:19.424Z,4.18
2019-01-20T22:39:46.971Z,4.39
2019-01-20T22:42:14.586Z,4.47
2019-01-20T22:44:42.019Z,4.68
2019-01-20T22:47:09.534Z,4.62
2019-01-20T22:49:36.911Z,4.57
2019-01-20T22:52:04.458Z,4.56
2019-01-20T22:54:32.123Z,4.58
2019-01-20T22:56:59.659Z,4.83
2019-01-20T22:59:27.204Z,4.78
2019-01-20T23:01:55.080Z,5.09
2019-01-20T23:04:22.596Z,4.99
2019-01-20T23:06:50.232Z,5.04
2019-01-20T23:09:17.781Z,4.78
2019-01-20T23:11:45.431Z,4.59
2019-01-20T23:14:13.117Z,4.56
2019-01-20T23:16:40.593Z,4.68
2019-01-20T23:19:08.215Z,4.57
2019-01-20T23:21:35.821Z,4.43
2019-01-20T23:24:03.880Z,4.45
2019-01-20T23:26:31.413Z,4.28
2019-01-20T23:28:58.918Z,4.18
2019-01-20T23:31:26.540Z,3.94
2019-01-20T23:33:53.984Z,3.96
2019-01-20T23:36:21.491Z,3.92
2019-01-20T23:38:49.057Z,3.84
2019-01-20T23:41:16.736Z,3.69
2019-01-20T23:43:44.316Z,3.68
2019-01-20T23:46:11.952Z,3.71
2019-01-20T23:48:39.346Z,3.83
2019-01-20T23:51:06.847Z,3.82
2019-01-20T23:53:34.398Z,3.79
2019-01-20T23:56:01.942Z,3.72
2019-01-20T23:58:29.423Z,3.78
